• Join FlightAware (Why Join?)
  • Login
  • US Flag 
06:35AM EST


 

Airport Tracker/Info


-or-


 

Live Flight TrackerFlight Track Log ✈ N1944E ✈ 18-Jan-2014 ✈ KCOD - KBZN

Flight Track Log - Related Links

Times and Time Zones

All times are in EST time to prevent confusion due to time zone crossing. See the N1944E flight status page for this flight to view local times or setup timezone preferences in your user account.

Time Position Orientation Groundspeed Altitude Reporting Facility
EST Latitude Longitude Course Direction KTS MPH feet Rate Location/Type
09:37AM 44.5989 -109.1483 305° West 143 165 9,200  Level Salt Lake Center
09:38AM 44.6250 -109.2006 305° West 144 166 10,500 1,020 Climbing Salt Lake Center
09:39AM 44.6517 -109.2406 313° West 142 163 11,300 840 Climbing Salt Lake Center
09:40AM 44.6781 -109.2825 312° West 143 165 12,300 900 Climbing Salt Lake Center
09:41AM 44.7025 -109.3228 311° West 140 161 13,200 840 Climbing Salt Lake Center
09:42AM 44.7258 -109.3633 309° West 136 157 14,100 780 Climbing Salt Lake Center
09:43AM 44.7511 -109.4028 312° West 135 155 14,900 780 Climbing Salt Lake Center
09:44AM 44.7767 -109.4431 312° West 136 157 15,700 540 Climbing Salt Lake Center
09:45AM 44.8019 -109.4864 309° West 139 160 16,000 120 Climbing Salt Lake Center
09:46AM 44.8322 -109.5375 310° West 157 181 16,000  Level Salt Lake Center
09:47AM 44.8636 -109.5869 312° West 166 191 16,000  Level Salt Lake Center
09:48AM 44.8942 -109.6339 313° West 165 190 16,000  Level Salt Lake Center
09:49AM 44.9239 -109.6825 311° West 164 189 16,000  Level Salt Lake Center
09:50AM 44.9517 -109.7322 308° West 164 189 16,000  Level Salt Lake Center
09:51AM 44.9806 -109.7811 310° West 162 186 16,000  Level Salt Lake Center
09:52AM 45.0144 -109.8378 310° West 162 186 16,000  Level Salt Lake Center
09:53AM 45.0431 -109.8828 312° West 161 185 16,000  Level Salt Lake Center
09:54AM 45.0711 -109.9314 309° West 165 190 16,000  Level Salt Lake Center
09:55AM 45.1039 -109.9864 310° West 164 189 16,000  Level Salt Lake Center
09:56AM 45.1336 -110.0367 310° West 166 191 16,000  Level Salt Lake Center
09:57AM 45.1622 -110.0867 309° West 164 189 16,000  Level Salt Lake Center
09:58AM 45.1897 -110.1358 308° West 161 185 16,000  Level Salt Lake Center
09:59AM 45.2131 -110.1742 311° West 164 189 16,100 120 Climbing Salt Lake Center
09:59AM 45.2164 -110.1786 317° Northwest 164 189 16,100 -300 Level Salt Lake Center
09:59AM 45.2192 -110.1867 296° West 165 190 16,000  Descending Salt Lake Center
10:00AM 45.2447 -110.2300 310° West 165 190 16,100  Climbing Salt Lake Center
10:00AM 45.2494 -110.2350 323° Northwest 164 189 16,000  Descending Salt Lake Center
10:01AM 45.2778 -110.2825 310° West 165 190 16,100  Climbing Salt Lake Center
10:01AM 45.2797 -110.2861 307° West 164 189 16,000 -240 Descending Salt Lake Center
10:02AM 45.3053 -110.3311 309° West 167 192 15,900 -300 Descending Salt Lake Center
10:02AM 45.3072 -110.3375 293° West 170 196 15,700 -900 Descending Salt Lake Center
10:03AM 45.3336 -110.3922 304° West 201 231 15,000 -900 Descending Salt Lake Center
10:03AM 45.3381 -110.4028 301° West 202 232 14,800 -840 Descending Salt Lake Center
10:04AM 45.3642 -110.4617 302° West 212 244 14,200 -840 Descending Salt Lake Center
10:04AM 45.3689 -110.4694 311° West 204 235 14,000 -120 Descending Salt Lake Center
10:05AM 45.3950 -110.5244 304° West 193 222 14,100  Climbing Salt Lake Center
10:05AM 45.3986 -110.5339 299° West 199 229 14,000  Descending Salt Lake Center
10:06AM 45.4233 -110.5856 304° West 172 198 14,100  Climbing Salt Lake Center
10:06AM 45.4297 -110.6019 299° West 176 203 14,000  Descending Salt Lake Center
10:07AM 45.4514 -110.6467 305° West 171 197 14,100 -120 Climbing Salt Lake Center
10:07AM 45.4575 -110.6592 305° West 172 198 13,900 -840 Descending Salt Lake Center
10:08AM 45.4797 -110.7081 303° West 177 204 13,300 -900 Descending Salt Lake Center
10:08AM 45.4853 -110.7222 299° West 183 211 13,000 -240 Descending Salt Lake Center
10:09AM 45.5092 -110.7750 303° West 194 223 13,100 -120 Climbing Salt Lake Center
10:10AM 45.5150 -110.7872 304° West 190 219 12,900 -1,080 Descending Salt Lake Center
10:11AM 45.5450 -110.8489 305° West 188 216 11,800 -1,080 Descending Salt Lake Center
10:11AM 45.5811 -110.8900 321° Northwest 212 244 11,000 -1,320 Descending Salt Lake Center
10:12AM 45.5914 -110.9011 323° Northwest 205 236 10,500 -1,380 Descending Salt Lake Center
10:12AM 45.6217 -110.9486 312° West 199 229 9,600 -1,200 Descending Salt Lake Center
10:13AM 45.6267 -110.9556 316° Northwest 200 230 9,300 -1,320 Descending Salt Lake Center
10:13AM 45.6550 -111.0044 310° West 203 234 8,300 -1,380 Descending Salt Lake Center
10:14AM 45.6633 -111.0183 311° West 201 231 7,900 -1,320 Descending Salt Lake Center
10:14AM 45.6889 -111.0633 309° West 191 220 7,000 -1,200 Descending Salt Lake Center
10:15AM 45.6975 -111.0769 312° West 192 221 6,700 -1,020 Descending Salt Lake Center
10:15AM 45.7256 -111.1239 311° West 191 220 6,000 -1,140 Descending Salt Lake Center
10:16AM 45.7339 -111.1356 316° Northwest 193 222 5,600 -300 Descending Salt Lake Center
10:16AM 45.7600 -111.1761 313° West 171 197 5,700  Climbing Salt Lake Center
10:17AM 45.7653 -111.1897 299° West 174 200 5,600 -300 Descending Salt Lake Center
10:17AM 45.7833 -111.2183 312° West 122 140 5,400 -540 Descending Salt Lake Center
10:18AM 45.7919 -111.2119 27° Northeast 137 158 5,100 -540 Descending Salt Lake Center
10:18AM 45.8022 -111.1872 59° Northeast 114 131 4,900 -540 Descending Salt Lake Center
10:19AM 45.7964 -111.1789 135° Southeast 107 123 4,600 -1,080 Descending Salt Lake Center